Bluegrove, Texas
Current Conditions -  °F | °C
As of 4:55 PM on Friday 28 Nov 2014 (Local Time) from KCWC Reporting Station
Clear Clear  
Wind Chill: 21°   Ceiling: Unl
Heat Index: 21°   Visibility: 10mi
Dew Point:   Wind: 12mph
Humidity: 37%   Direction: 190°S
Pressure: 29.94"   Gusts: 17mph
Location:  33.67°N, 98.23°W
Report Text: KCWC 282255Z AUTO 19010G15KT 10SM CLR 21/06 A2994 RMK AO2 T02070056
Loading
Personal Weather Stations






























Interactive Weather Map New forecast layout! Learn more

10-Day Weather Forecast

Advertisements
Track Severe Weather on mobile